Time,TemperatureF,DewpointF,PressureIn,WindDirection,WindDirectionDegrees,WindSpeedMPH,WindSpeedGustMPH,Humidity,HourlyPrecipIn,Conditions,Clouds,dailyrainin,SolarRadiationWatts/m^2,SoftwareType,DateUTC
2013-01-11 00:01:00,50.1,47.9,29.86,NNE,30,1.1,1.1,92,0.00,-RA,,0.00,0.0,WeatherDisplay:10.37,2013-01-10 23:01:00,
2013-01-11 00:06:00,50.1,47.9,29.86,NNE,30,0.0,0.3,92,0.00,-RA,,0.00,0.0,WeatherDisplay:10.37,2013-01-10 23:06:00,
2013-01-11 00:11:00,50.1,47.9,29.86,NNE,30,0.0,0.3,92,0.00,-RA,,0.00,0.0,WeatherDisplay:10.37,2013-01-10 23:11:00,
2013-01-11 00:16:00,50.1,47.9,29.86,North,5,1.1,1.1,92,0.00,-RA,,0.00,0.0,WeatherDisplay:10.37,2013-01-10 23:16:00,
2013-01-11 00:21:00,50.3,48.1,29.86,North,355,3.5,3.5,92,0.00,BKN,,0.00,0.0,WeatherDisplay:10.37,2013-01-10 23:21:00,
2013-01-11 00:26:00,50.3,48.1,29.86,North,355,2.3,2.3,92,0.00,BKN,,0.00,0.0,WeatherDisplay:10.37,2013-01-10 23:26:00,
2013-01-11 00:31:00,50.6,48.4,29.86,North,360,1.1,1.1,92,0.00,BKN,,0.00,0.0,WeatherDisplay:10.37,2013-01-10 23:31:00,
2013-01-11 00:36:00,50.6,48.4,29.86,North,360,1.1,1.1,92,0.00,BKN,,0.00,0.0,WeatherDisplay:10.37,2013-01-10 23:36:00,
2013-01-11 00:41:00,50.6,48.1,29.86,North,360,0.0,0.2,91,0.00,BKN,,0.00,0.0,WeatherDisplay:10.37,2013-01-10 23:41:00,
2013-01-11 00:47:00,50.6,48.1,29.86,North,360,0.0,0.2,91,0.00,BKN,,0.00,0.0,WeatherDisplay:10.37,2013-01-10 23:47:00,
2013-01-11 00:52:00,50.6,47.8,29.86,North,360,0.0,0.0,90,0.00,BKN,,0.00,0.0,WeatherDisplay:10.37,2013-01-10 23:52:00,
2013-01-11 00:57:00,50.6,47.8,29.86,North,360,0.0,0.0,90,0.00,BKN,,0.00,0.0,WeatherDisplay:10.37,2013-01-10 23:57:00,
2013-01-11 01:02:00,50.7,47.9,29.85,North,360,0.0,0.3,90,0.00,BKN,,0.00,0.0,WeatherDisplay:10.37,2013-01-11 00:02:00,
2013-01-11 01:07:00,50.8,48.0,29.85,North,5,1.1,1.1,90,0.00,BKN,,0.00,0.0,WeatherDisplay:10.37,2013-01-11 00:07:00,
2013-01-11 01:12:00,50.8,48.0,29.85,North,5,0.0,0.0,90,0.00,BKN,,0.00,0.0,WeatherDisplay:10.37,2013-01-11 00:12:00,
2013-01-11 01:17:00,50.7,47.9,29.85,North,5,0.0,0.0,90,0.00,BKN,,0.00,0.0,WeatherDisplay:10.37,2013-01-11 00:17:00,
2013-01-11 01:22:00,50.3,47.2,29.85,NNE,26,0.0,0.1,89,0.00,BKN,,0.00,0.0,WeatherDisplay:10.37,2013-01-11 00:22:00,
2013-01-11 01:27:00,50.2,47.4,29.85,West,259,2.3,2.3,90,0.01,RA,,0.01,0.0,WeatherDisplay:10.37,2013-01-11 00:27:00,
2013-01-11 01:32:00,50.1,47.3,29.85,SW,231,3.5,3.5,90,0.01,RA,,0.01,0.0,WeatherDisplay:10.37,2013-01-11 00:32:00,
2013-01-11 01:37:00,50.0,47.2,29.85,East,86,1.1,1.1,90,0.01,BKN,,0.01,0.0,WeatherDisplay:10.37,2013-01-11 00:37:00,
2013-01-11 01:42:00,50.0,47.5,29.85,ENE,77,2.3,2.3,91,0.01,BKN,,0.01,0.0,WeatherDisplay:10.37,2013-01-11 00:42:00,
2013-01-11 01:47:00,49.9,47.4,29.85,East,92,4.6,4.6,91,0.02,RA,,0.02,0.0,WeatherDisplay:10.37,2013-01-11 00:47:00,
2013-01-11 01:52:00,50.0,47.5,29.85,ENE,65,4.6,4.6,91,0.04,RA,,0.04,0.0,WeatherDisplay:10.37,2013-01-11 00:52:00,
2013-01-11 01:58:00,49.9,47.4,29.85,ENE,67,3.5,3.5,91,0.06,RA,,0.06,0.0,WeatherDisplay:10.37,2013-01-11 00:58:00,
2013-01-11 02:03:00,49.8,47.6,29.85,WSW,253,2.3,2.3,92,0.08,RA,,0.08,0.0,WeatherDisplay:10.37,2013-01-11 01:03:00,
2013-01-11 02:08:00,49.8,47.6,29.85,NNE,20,4.0,4.0,92,0.10,RA,,0.10,0.0,WeatherDisplay:10.37,2013-01-11 01:08:00,
2013-01-11 02:13:00,49.6,47.4,29.85,NNE,13,3.5,3.5,92,0.11,RA,,0.11,0.0,WeatherDisplay:10.37,2013-01-11 01:13:00,
2013-01-11 02:18:00,49.6,47.7,29.86,NE,38,3.5,3.5,93,0.11,RA,,0.11,0.0,WeatherDisplay:10.37,2013-01-11 01:18:00,
2013-01-11 02:23:00,49.7,47.8,29.85,NE,48,2.3,2.3,93,0.11,-RA,,0.11,0.0,WeatherDisplay:10.37,2013-01-11 01:23:00,
2013-01-11 02:28:00,49.9,48.0,29.85,ENE,69,1.1,1.1,93,0.10,-RA,,0.11,0.0,WeatherDisplay:10.37,2013-01-11 01:28:00,
2013-01-11 02:33:00,49.9,48.0,29.85,ENE,71,1.1,1.1,93,0.10,-RA,,0.11,0.0,WeatherDisplay:10.37,2013-01-11 01:33:00,
2013-01-11 02:38:00,49.8,47.9,29.85,ENE,71,0.0,0.0,93,0.10,-RA,,0.11,0.0,WeatherDisplay:10.37,2013-01-11 01:38:00,
2013-01-11 02:43:00,49.8,47.9,29.85,ENE,71,0.0,0.0,93,0.10,-RA,,0.11,0.0,WeatherDisplay:10.37,2013-01-11 01:43:00,
2013-01-11 02:48:00,49.8,47.9,29.85,ENE,71,1.1,0.0,93,0.09,-RA,,0.11,0.0,WeatherDisplay:10.37,2013-01-11 01:48:00,
2013-01-11 02:53:00,49.9,48.0,29.85,ENE,71,0.0,0.0,93,0.07,-RA,,0.11,0.0,WeatherDisplay:10.37,2013-01-11 01:53:00,
2013-01-11 02:58:00,49.9,48.0,29.85,ENE,71,0.0,0.0,93,0.06,-RA,,0.11,0.0,WeatherDisplay:10.37,2013-01-11 01:58:00,
2013-01-11 03:03:00,50.0,48.1,29.85,ENE,71,1.1,0.0,93,0.03,-RA,,0.11,0.0,WeatherDisplay:10.37,2013-01-11 02:03:00,
2013-01-11 03:08:00,50.0,48.1,29.85,ESE,111,3.5,3.5,93,0.01,-RA,,0.11,0.0,WeatherDisplay:10.37,2013-01-11 02:08:00,
2013-01-11 03:13:00,49.9,48.0,29.85,ESE,102,3.5,3.5,93,0.00,-RA,,0.11,0.0,WeatherDisplay:10.37,2013-01-11 02:13:00,
2013-01-11 03:18:00,49.7,47.8,29.85,East,88,2.3,2.3,93,0.00,-RA,,0.11,0.0,WeatherDisplay:10.37,2013-01-11 02:18:00,
2013-01-11 03:23:00,49.6,47.7,29.85,ESE,102,1.1,0.0,93,0.00,BKN,,0.11,0.0,WeatherDisplay:10.37,2013-01-11 02:23:00,
2013-01-11 03:28:00,49.5,47.6,29.85,East,98,1.1,1.1,93,0.00,BKN,,0.11,0.0,WeatherDisplay:10.37,2013-01-11 02:28:00,
2013-01-11 03:33:00,49.3,47.4,29.85,East,86,0.0,0.0,93,0.00,BKN,,0.11,0.0,WeatherDisplay:10.37,2013-01-11 02:33:00,
2013-01-11 03:38:00,49.3,47.4,29.85,East,86,1.1,0.0,93,0.00,BKN,,0.11,0.0,WeatherDisplay:10.37,2013-01-11 02:38:00,
2013-01-11 03:44:00,49.3,47.4,29.85,East,86,1.1,0.0,93,0.00,BKN,,0.11,0.0,WeatherDisplay:10.37,2013-01-11 02:44:00,
2013-01-11 03:49:00,49.2,47.3,29.85,East,90,3.5,3.5,93,0.00,BKN,,0.11,0.0,WeatherDisplay:10.37,2013-01-11 02:49:00,
2013-01-11 03:54:00,49.5,47.8,29.84,SE,125,3.5,3.5,94,0.00,BKN,,0.11,0.0,WeatherDisplay:10.37,2013-01-11 02:54:00,
2013-01-11 03:59:00,49.7,48.0,29.84,SE,125,1.1,1.1,94,0.00,BKN,,0.11,0.0,WeatherDisplay:10.37,2013-01-11 02:59:00,
2013-01-11 04:04:00,49.8,48.1,29.84,SW,232,1.1,1.1,94,0.00,BKN,,0.11,0.0,WeatherDisplay:10.37,2013-01-11 03:04:00,
2013-01-11 04:09:00,49.9,48.2,29.84,WSW,247,0.0,0.0,94,0.00,BKN,,0.11,0.0,WeatherDisplay:10.37,2013-01-11 03:09:00,
2013-01-11 04:14:00,50.0,48.3,29.84,NNW,331,2.3,2.3,94,0.00,BKN,,0.11,0.0,WeatherDisplay:10.37,2013-01-11 03:14:00,
2013-01-11 04:19:00,50.1,48.2,29.84,North,360,3.5,3.5,93,0.00,BKN,,0.11,0.0,WeatherDisplay:10.37,2013-01-11 03:19:00,
2013-01-11 04:24:00,50.4,48.5,29.84,NW,323,3.5,3.5,93,0.00,FEW,,0.11,0.0,WeatherDisplay:10.37,2013-01-11 03:24:00,
2013-01-11 04:29:00,50.6,48.7,29.84,WNW,288,4.6,4.6,93,0.00,FEW,,0.11,0.0,WeatherDisplay:10.37,2013-01-11 03:29:00,
2013-01-11 04:34:00,50.7,48.5,29.84,NW,321,6.0,6.0,92,0.00,FEW,,0.11,0.0,WeatherDisplay:10.37,2013-01-11 03:34:00,
2013-01-11 04:39:00,51.0,48.8,29.84,NW,322,7.0,7.0,92,0.00,FEW,,0.11,0.0,WeatherDisplay:10.37,2013-01-11 03:39:00,
2013-01-11 04:44:00,51.2,48.7,29.84,NNW,327,6.9,6.9,91,0.00,FEW,,0.11,0.0,WeatherDisplay:10.37,2013-01-11 03:44:00,
2013-01-11 04:49:00,51.3,48.8,29.84,NW,325,5.8,5.8,91,0.00,FEW,,0.11,0.0,WeatherDisplay:10.37,2013-01-11 03:49:00,
2013-01-11 04:54:00,51.4,48.6,29.84,NW,319,5.0,5.0,90,0.00,FEW,,0.11,0.0,WeatherDisplay:10.37,2013-01-11 03:54:00,
2013-01-11 04:59:00,51.3,48.5,29.84,NW,321,5.8,5.8,90,0.00,FEW,,0.11,0.0,WeatherDisplay:10.37,2013-01-11 03:59:00,
2013-01-11 05:04:00,51.3,48.5,29.83,NNW,332,5.0,6.0,90,0.00,FEW,,0.11,0.0,WeatherDisplay:10.37,2013-01-11 04:04:00,
2013-01-11 05:09:00,51.2,48.4,29.84,NW,325,5.0,5.0,90,0.00,FEW,,0.11,0.0,WeatherDisplay:10.37,2013-01-11 04:09:00,
2013-01-11 05:14:00,51.1,48.3,29.84,NW,322,5.8,5.8,90,0.00,FEW,,0.11,0.0,WeatherDisplay:10.37,2013-01-11 04:14:00,
2013-01-11 05:19:00,51.0,48.2,29.84,NNW,334,5.0,5.0,90,0.00,FEW,,0.11,0.0,WeatherDisplay:10.37,2013-01-11 04:19:00,
2013-01-11 05:24:00,51.0,48.2,29.84,NNW,340,3.0,5.0,90,0.00,FEW,,0.11,0.0,WeatherDisplay:10.37,2013-01-11 04:24:00,
2013-01-11 05:29:00,51.0,47.9,29.83,NW,317,3.5,3.5,89,0.00,FEW,,0.11,0.0,WeatherDisplay:10.37,2013-01-11 04:29:00,
2013-01-11 05:34:00,51.0,47.9,29.83,NNW,334,4.6,4.6,89,0.00,FEW,,0.11,0.0,WeatherDisplay:10.37,2013-01-11 04:34:00,
2013-01-11 05:39:00,50.9,47.8,29.84,North,355,3.5,3.5,89,0.00,FEW,,0.11,0.0,WeatherDisplay:10.37,2013-01-11 04:39:00,
2013-01-11 05:44:00,50.8,47.7,29.84,North,353,1.0,3.0,89,0.00,FEW,,0.11,0.0,WeatherDisplay:10.37,2013-01-11 04:44:00,
2013-01-11 05:49:00,50.7,47.6,29.84,NNW,339,4.6,4.6,89,0.00,FEW,,0.11,0.0,WeatherDisplay:10.37,2013-01-11 04:49:00,
2013-01-11 05:54:00,50.7,47.9,29.84,NNW,348,5.8,5.8,90,0.00,FEW,,0.11,0.0,WeatherDisplay:10.37,2013-01-11 04:54:00,
2013-01-11 05:59:00,50.7,47.9,29.84,NNW,344,3.0,5.0,90,0.00,FEW,,0.11,0.0,WeatherDisplay:10.37,2013-01-11 04:59:00,
2013-01-11 06:02:00,50.7,47.9,29.84,NNW,329,3.5,3.5,90,0.00,FEW,,0.11,0.0,WeatherDisplay:10.37,2013-01-11 05:02:00,
2013-01-11 06:03:00,50.7,47.9,29.84,NNW,335,3.5,3.5,90,0.00,FEW,,0.11,0.0,WeatherDisplay:10.37,2013-01-11 05:03:00,
2013-01-11 06:08:00,50.9,48.1,29.84,NNW,340,4.0,4.0,90,0.00,FEW,,0.11,0.0,WeatherDisplay:10.37,2013-01-11 05:08:00,
2013-01-11 06:13:00,50.9,47.8,29.84,NNW,345,3.5,3.5,89,0.00,FEW,,0.11,0.0,WeatherDisplay:10.37,2013-01-11 05:13:00,
2013-01-11 06:18:00,51.0,47.9,29.84,North,355,3.5,3.5,89,0.00,FEW,,0.11,0.0,WeatherDisplay:10.37,2013-01-11 05:18:00,
2013-01-11 06:23:00,51.0,47.9,29.84,North,355,3.5,3.5,89,0.00,FEW,,0.11,0.0,WeatherDisplay:10.37,2013-01-11 05:23:00,
2013-01-11 06:28:00,50.9,47.8,29.84,North,355,3.5,3.8,89,0.00,FEW,,0.11,0.0,WeatherDisplay:10.37,2013-01-11 05:28:00,
2013-01-11 06:33:00,51.0,47.9,29.84,North,355,3.5,3.5,89,0.00,FEW,,0.11,0.0,WeatherDisplay:10.37,2013-01-11 05:33:00,
2013-01-11 06:38:00,50.8,47.7,29.84,North,355,4.0,4.0,89,0.00,FEW,,0.11,0.0,WeatherDisplay:10.37,2013-01-11 05:38:00,
2013-01-11 06:43:00,50.8,47.7,29.84,NNW,348,3.5,3.5,89,0.00,FEW,,0.11,0.0,WeatherDisplay:10.37,2013-01-11 05:43:00,
2013-01-11 06:48:00,50.8,47.7,29.84,NNW,348,3.5,3.5,89,0.00,FEW,,0.11,0.0,WeatherDisplay:10.37,2013-01-11 05:48:00,
2013-01-11 06:53:00,50.7,47.6,29.85,North,350,4.0,4.0,89,0.00,FEW,,0.11,0.0,WeatherDisplay:10.37,2013-01-11 05:53:00,
2013-01-11 06:58:00,50.7,47.3,29.85,NNW,344,3.5,3.5,88,0.00,FEW,,0.11,0.0,WeatherDisplay:10.37,2013-01-11 05:58:00,
2013-01-11 07:03:00,50.8,47.4,29.84,NNW,348,3.5,3.5,88,0.00,FEW,,0.11,0.0,WeatherDisplay:10.37,2013-01-11 06:03:00,
2013-01-11 07:09:00,50.8,47.7,29.85,NNW,344,2.3,2.3,89,0.00,FEW,,0.11,0.0,WeatherDisplay:10.37,2013-01-11 06:09:00,
2013-01-11 07:14:00,50.8,47.4,29.85,NNW,344,1.1,1.1,88,0.00,FEW,,0.11,0.0,WeatherDisplay:10.37,2013-01-11 06:14:00,
2013-01-11 07:19:00,50.8,47.4,29.85,NNW,344,2.3,2.3,88,0.00,FEW,,0.11,0.0,WeatherDisplay:10.37,2013-01-11 06:19:00,
2013-01-11 07:24:00,50.8,47.4,29.85,NNW,344,0.0,0.0,88,0.00,SCT,,0.11,0.0,WeatherDisplay:10.37,2013-01-11 06:24:00,
2013-01-11 07:29:00,50.8,47.4,29.85,NNW,344,0.0,0.0,88,0.00,SCT,,0.11,0.0,WeatherDisplay:10.37,2013-01-11 06:29:00,
2013-01-11 07:34:00,50.7,47.3,29.85,NNW,344,0.0,0.0,88,0.00,SCT,,0.11,0.0,WeatherDisplay:10.37,2013-01-11 06:34:00,
2013-01-11 07:39:00,50.6,47.2,29.85,NNW,344,1.0,0.0,88,0.00,SCT,,0.11,0.0,WeatherDisplay:10.37,2013-01-11 06:39:00,
2013-01-11 07:44:00,50.4,47.0,29.85,NNW,344,0.0,0.0,88,0.00,SCT,,0.11,7.0,WeatherDisplay:10.37,2013-01-11 06:44:00,
2013-01-11 07:49:00,50.3,46.9,29.85,ESE,117,2.3,2.3,88,0.00,SCT,,0.11,12.0,WeatherDisplay:10.37,2013-01-11 06:49:00,
2013-01-11 07:54:00,50.1,46.7,29.85,ESE,114,3.5,3.5,88,0.00,SCT,,0.11,18.0,WeatherDisplay:10.37,2013-01-11 06:54:00,
2013-01-11 07:59:00,50.0,46.9,29.85,ESE,102,3.5,3.5,89,0.00,SCT,,0.11,26.0,WeatherDisplay:10.37,2013-01-11 06:59:00,
2013-01-11 08:04:00,50.0,46.9,29.86,East,93,1.1,1.1,89,0.00,SCT,,0.11,25.0,WeatherDisplay:10.37,2013-01-11 07:04:00,
2013-01-11 08:09:00,50.0,46.9,29.85,East,93,1.1,0.0,89,0.00,SCT,,0.11,23.0,WeatherDisplay:10.37,2013-01-11 07:09:00,
2013-01-11 08:14:00,50.1,47.0,29.86,East,93,1.1,1.1,89,0.00,SCT,,0.11,33.0,WeatherDisplay:10.37,2013-01-11 07:14:00,
2013-01-11 08:19:00,50.2,47.1,29.86,East,93,0.0,0.0,89,0.00,SCT,,0.11,26.0,WeatherDisplay:10.37,2013-01-11 07:19:00,
2013-01-11 08:24:00,50.2,47.4,29.86,East,93,0.0,0.0,90,0.00,SCT,,0.11,21.0,WeatherDisplay:10.37,2013-01-11 07:24:00,
2013-01-11 08:29:00,50.3,47.5,29.86,East,93,0.0,0.0,90,0.00,SCT,,0.11,25.0,WeatherDisplay:10.37,2013-01-11 07:29:00,
2013-01-11 08:34:00,50.4,47.6,29.86,East,93,0.0,0.0,90,0.00,SCT,,0.11,35.0,WeatherDisplay:10.37,2013-01-11 07:34:00,
2013-01-11 08:39:00,50.5,47.4,29.86,East,93,0.0,0.0,89,0.00,SCT,,0.11,37.0,WeatherDisplay:10.37,2013-01-11 07:39:00,
2013-01-11 08:44:00,50.7,47.9,29.86,East,84,1.1,1.1,90,0.00,SCT,,0.11,47.0,WeatherDisplay:10.37,2013-01-11 07:44:00,
2013-01-11 08:49:00,51.0,47.9,29.87,East,84,1.1,1.1,89,0.00,SCT,,0.11,51.0,WeatherDisplay:10.37,2013-01-11 07:49:00,
2013-01-11 08:54:00,51.1,48.0,29.87,NNW,347,3.5,3.5,89,0.00,SCT,,0.11,39.0,WeatherDisplay:10.37,2013-01-11 07:54:00,
2013-01-11 08:59:00,51.3,48.2,29.87,NW,324,2.3,2.3,89,0.00,SCT,,0.11,42.0,WeatherDisplay:10.37,2013-01-11 07:59:00,
2013-01-11 09:04:00,51.5,48.4,29.87,NW,325,2.3,2.3,89,0.00,SCT,,0.11,39.0,WeatherDisplay:10.37,2013-01-11 08:04:00,
2013-01-11 09:09:00,51.7,48.6,29.87,NW,325,1.1,1.1,89,0.00,SCT,,0.11,47.0,WeatherDisplay:10.37,2013-01-11 08:09:00,
2013-01-11 09:14:00,51.8,48.7,29.87,NW,325,1.1,1.1,89,0.00,SCT,,0.11,56.0,WeatherDisplay:10.37,2013-01-11 08:14:00,
2013-01-11 09:19:00,51.9,48.8,29.87,NW,325,0.0,0.0,89,0.00,SCT,,0.11,47.0,WeatherDisplay:10.37,2013-01-11 08:19:00,
2013-01-11 09:24:00,51.9,48.5,29.87,NW,325,1.1,0.0,88,0.00,SCT,,0.11,35.0,WeatherDisplay:10.37,2013-01-11 08:24:00,
2013-01-11 09:29:00,51.9,48.5,29.87,NW,325,0.0,0.0,88,0.00,SCT,,0.11,33.0,WeatherDisplay:10.37,2013-01-11 08:29:00,
2013-01-11 09:34:00,51.8,48.4,29.87,ENE,76,3.0,3.0,88,0.00,SCT,,0.11,49.0,WeatherDisplay:10.37,2013-01-11 08:34:00,
2013-01-11 09:39:00,51.7,48.3,29.87,East,80,1.1,1.1,88,0.00,SCT,,0.11,67.0,WeatherDisplay:10.37,2013-01-11 08:39:00,
2013-01-11 09:44:00,51.7,48.3,29.87,East,80,2.3,2.3,88,0.00,SCT,,0.11,91.0,WeatherDisplay:10.37,2013-01-11 08:44:00,
2013-01-11 09:49:00,51.9,48.5,29.87,East,80,1.1,1.1,88,0.00,SCT,,0.11,116.0,WeatherDisplay:10.37,2013-01-11 08:49:00,
2013-01-11 09:54:00,52.0,48.6,29.88,East,80,1.1,1.1,88,0.00,SCT,,0.11,98.0,WeatherDisplay:10.37,2013-01-11 08:54:00,
2013-01-11 09:59:00,52.2,48.8,29.87,East,80,3.5,3.5,88,0.00,SCT,,0.11,146.0,WeatherDisplay:10.37,2013-01-11 08:59:00,
2013-01-11 10:04:00,52.5,49.0,29.87,ESE,102,3.5,3.5,88,0.00,SCT,,0.11,279.0,WeatherDisplay:10.37,2013-01-11 09:04:00,
2013-01-11 10:09:00,52.9,49.1,29.86,ESE,109,3.5,3.5,87,0.00,SCT,,0.11,295.0,WeatherDisplay:10.37,2013-01-11 09:09:00,
2013-01-11 10:14:00,53.4,49.6,29.87,SE,126,3.5,3.5,87,0.00,SCT,,0.11,330.0,WeatherDisplay:10.37,2013-01-11 09:14:00,
2013-01-11 10:19:00,53.9,50.1,29.87,ESE,111,1.1,0.0,87,0.00,SCT,,0.11,318.0,WeatherDisplay:10.37,2013-01-11 09:19:00,
2013-01-11 10:24:00,54.6,50.8,29.86,ESE,111,1.1,0.0,87,0.00,SCT,,0.11,311.0,WeatherDisplay:10.37,2013-01-11 09:24:00,
2013-01-11 10:29:00,55.2,50.8,29.86,South,170,2.3,2.3,85,0.00,SCT,,0.11,323.0,WeatherDisplay:10.37,2013-01-11 09:29:00,
2013-01-11 10:34:00,55.8,51.0,29.86,ESE,112,1.1,1.1,84,0.00,SCT,,0.11,327.0,WeatherDisplay:10.37,2013-01-11 09:34:00,
2013-01-11 10:39:00,55.9,50.2,29.86,East,101,2.3,2.3,81,0.01,RA,,0.12,345.0,WeatherDisplay:10.37,2013-01-11 09:39:00,
2013-01-11 10:44:00,55.9,50.2,29.86,SE,146,1.1,1.1,81,0.01,RA,,0.12,355.0,WeatherDisplay:10.37,2013-01-11 09:44:00,
2013-01-11 10:49:00,56.3,50.9,29.85,South,176,0.0,0.2,82,0.01,SCT,,0.12,364.0,WeatherDisplay:10.37,2013-01-11 09:49:00,
2013-01-11 10:54:00,56.7,50.6,29.85,ESE,123,2.3,2.3,80,0.01,SCT,,0.12,374.0,WeatherDisplay:10.37,2013-01-11 09:54:00,
2013-01-11 10:59:00,56.7,50.3,29.85,SE,128,2.3,2.3,79,0.01,SCT,,0.12,385.0,WeatherDisplay:10.37,2013-01-11 09:59:00,
2013-01-11 11:04:00,57.0,50.5,29.85,SSW,212,3.5,3.5,79,0.01,FEW,,0.12,388.0,WeatherDisplay:10.37,2013-01-11 10:04:00,
2013-01-11 11:09:00,57.4,50.6,29.84,South,171,2.3,2.3,78,0.01,FEW,,0.12,394.0,WeatherDisplay:10.37,2013-01-11 10:09:00,
2013-01-11 11:14:00,57.2,50.1,29.84,South,181,3.5,3.5,77,0.01,FEW,,0.12,403.0,WeatherDisplay:10.37,2013-01-11 10:14:00,
2013-01-11 11:19:00,57.1,49.6,29.84,SSW,198,4.6,4.6,76,0.01,FEW,,0.12,413.0,WeatherDisplay:10.37,2013-01-11 10:19:00,
2013-01-11 11:24:00,57.1,49.6,29.84,SW,225,6.9,6.9,76,0.01,FEW,,0.12,411.0,WeatherDisplay:10.37,2013-01-11 10:24:00,
2013-01-11 11:29:00,56.8,49.3,29.84,SSW,213,5.0,5.0,76,0.01,FEW,,0.12,431.0,WeatherDisplay:10.37,2013-01-11 10:29:00,
2013-01-11 11:34:00,56.5,49.4,29.84,WSW,240,3.5,3.5,77,0.01,FEW,,0.12,221.0,WeatherDisplay:10.37,2013-01-11 10:34:00,
2013-01-11 11:39:00,56.2,48.7,29.84,SW,224,3.5,3.5,76,0.00,FEW,,0.12,188.0,WeatherDisplay:10.37,2013-01-11 10:39:00,
2013-01-11 11:44:00,55.8,48.0,29.84,WSW,238,8.1,8.1,75,0.00,FEW,,0.12,163.0,WeatherDisplay:10.37,2013-01-11 10:44:00,
2013-01-11 11:49:00,55.8,48.7,29.83,South,185,3.0,3.0,77,0.00,FEW,,0.12,130.0,WeatherDisplay:10.37,2013-01-11 10:49:00,
2013-01-11 11:54:00,55.7,48.2,29.83,WNW,290,3.5,3.5,76,0.00,FEW,,0.12,111.0,WeatherDisplay:10.37,2013-01-11 10:54:00,
2013-01-11 11:59:00,55.5,48.4,29.83,SSW,198,8.1,8.1,77,0.00,FEW,,0.12,165.0,WeatherDisplay:10.37,2013-01-11 10:59:00,
2013-01-11 12:04:00,55.5,48.4,29.82,SW,229,10.4,10.4,77,0.00,FEW,,0.12,193.0,WeatherDisplay:10.37,2013-01-11 11:04:00,
2013-01-11 12:09:00,55.5,48.1,29.82,WSW,240,10.4,10.4,76,0.00,FEW,,0.12,148.0,WeatherDisplay:10.37,2013-01-11 11:09:00,
2013-01-11 12:14:00,55.7,47.9,29.82,WNW,286,5.8,5.8,75,0.00,FEW,,0.12,171.0,WeatherDisplay:10.37,2013-01-11 11:14:00,
2013-01-11 12:19:00,55.8,48.3,29.82,WSW,244,7.0,7.0,76,0.00,FEW,,0.12,111.0,WeatherDisplay:10.37,2013-01-11 11:19:00,
2013-01-11 12:24:00,55.6,48.5,29.82,SW,223,11.0,11.0,77,0.00,BKN,,0.12,114.0,WeatherDisplay:10.37,2013-01-11 11:24:00,
2013-01-11 12:29:00,55.6,48.5,29.82,SSE,155,10.4,10.4,77,0.00,BKN,,0.12,137.0,WeatherDisplay:10.37,2013-01-11 11:29:00,
2013-01-11 12:34:00,55.6,48.5,29.81,SW,216,3.0,14.0,77,0.00,BKN,,0.12,102.0,WeatherDisplay:10.37,2013-01-11 11:34:00,
2013-01-11 12:39:00,55.5,48.4,29.81,West,259,11.5,11.5,77,0.00,BKN,,0.12,63.0,WeatherDisplay:10.37,2013-01-11 11:39:00,
2013-01-11 12:44:00,55.4,48.3,29.81,SW,229,8.0,13.0,77,0.00,BKN,,0.12,95.0,WeatherDisplay:10.37,2013-01-11 11:44:00,
2013-01-11 12:49:00,55.3,48.6,29.81,WSW,241,12.7,12.7,78,0.00,BKN,,0.12,100.0,WeatherDisplay:10.37,2013-01-11 11:49:00,
2013-01-11 12:54:00,55.2,48.8,29.81,SW,228,11.5,11.5,79,0.00,BKN,,0.12,192.0,WeatherDisplay:10.37,2013-01-11 11:54:00,
2013-01-11 12:59:00,55.1,48.7,29.81,SW,236,5.0,12.0,79,0.00,BKN,,0.12,79.0,WeatherDisplay:10.37,2013-01-11 11:59:00,
2013-01-11 13:04:00,55.2,49.1,29.80,South,182,9.2,9.2,80,0.00,BKN,,0.12,230.0,WeatherDisplay:10.37,2013-01-11 12:04:00,
2013-01-11 13:09:00,55.4,49.3,29.80,WSW,248,5.0,8.0,80,0.00,BKN,,0.12,188.0,WeatherDisplay:10.37,2013-01-11 12:09:00,
2013-01-11 13:14:00,55.8,50.1,29.80,SW,225,11.5,11.5,81,0.00,BKN,,0.12,116.0,WeatherDisplay:10.37,2013-01-11 12:14:00,
2013-01-11 13:19:00,55.9,50.2,29.80,SW,224,11.5,11.5,81,0.00,BKN,,0.12,148.0,WeatherDisplay:10.37,2013-01-11 12:19:00,
2013-01-11 13:24:00,55.9,50.5,29.79,WSW,244,5.0,15.0,82,0.00,BKN,,0.12,67.0,WeatherDisplay:10.37,2013-01-11 12:24:00,
2013-01-11 13:29:00,55.7,50.3,29.79,WSW,239,12.7,12.7,82,0.00,BKN,,0.13,21.0,WeatherDisplay:10.37,2013-01-11 12:29:00,
2013-01-11 13:34:00,55.6,50.5,29.79,SW,235,5.0,14.0,83,0.00,RA,,0.13,60.0,WeatherDisplay:10.37,2013-01-11 12:34:00,
2013-01-11 13:39:00,55.8,51.0,29.79,WSW,243,13.0,23.0,84,0.00,BKN,,0.13,151.0,WeatherDisplay:10.37,2013-01-11 12:39:00,
2013-01-11 13:44:00,56.0,50.9,29.79,WSW,242,12.0,16.0,83,0.00,BKN,,0.13,197.0,WeatherDisplay:10.37,2013-01-11 12:44:00,
2013-01-11 13:49:00,56.2,50.4,29.79,WSW,242,10.4,10.4,81,0.01,BKN,,0.13,81.0,WeatherDisplay:10.37,2013-01-11 12:49:00,
2013-01-11 13:54:00,56.1,50.3,29.78,WSW,253,9.0,14.0,81,0.00,BKN,,0.13,70.0,WeatherDisplay:10.37,2013-01-11 12:54:00,
2013-01-11 13:59:00,55.9,50.2,29.78,West,269,11.5,11.5,81,0.01,BKN,,0.13,49.0,WeatherDisplay:10.37,2013-01-11 12:59:00,
2013-01-11 14:04:00,55.8,50.0,29.78,WSW,258,13.0,18.0,81,0.00,BKN,,0.13,76.0,WeatherDisplay:10.37,2013-01-11 13:04:00,
2013-01-11 14:09:00,55.5,50.7,29.79,WSW,240,13.0,24.0,84,0.00,BKN,,0.13,46.0,WeatherDisplay:10.37,2013-01-11 13:09:00,
2013-01-11 14:14:00,55.6,49.5,29.79,West,271,30.0,30.0,80,0.01,BKN,,0.13,130.0,WeatherDisplay:10.37,2013-01-11 13:14:00,
2013-01-11 14:19:00,55.8,48.3,29.79,West,261,23.0,35.0,76,0.00,BKN,,0.13,149.0,WeatherDisplay:10.37,2013-01-11 13:19:00,
2013-01-11 14:24:00,56.0,47.8,29.79,WSW,254,18.0,35.0,74,0.00,BKN,,0.13,160.0,WeatherDisplay:10.37,2013-01-11 13:24:00,
2013-01-11 14:29:00,56.0,47.5,29.79,West,260,23.0,35.0,73,0.00,BKN,,0.13,171.0,WeatherDisplay:10.37,2013-01-11 13:29:00,
2013-01-11 14:34:00,56.2,47.3,29.79,West,268,21.0,38.0,72,0.00,BKN,,0.13,172.0,WeatherDisplay:10.37,2013-01-11 13:34:00,
2013-01-11 14:39:00,56.4,47.5,29.79,West,276,15.0,36.0,72,0.00,RA,,0.13,345.0,WeatherDisplay:10.37,2013-01-11 13:39:00,
2013-01-11 14:44:00,56.7,47.4,29.79,WSW,240,20.7,20.7,71,0.01,RA,,0.13,221.0,WeatherDisplay:10.37,2013-01-11 13:44:00,
2013-01-11 14:49:00,56.4,46.8,29.79,West,264,21.0,33.0,70,0.00,-RA,,0.13,141.0,WeatherDisplay:10.37,2013-01-11 13:49:00,
2013-01-11 14:54:00,56.5,46.4,29.79,WNW,290,31.1,31.1,69,0.01,-RA,,0.13,287.0,WeatherDisplay:10.37,2013-01-11 13:54:00,
2013-01-11 14:59:00,56.5,46.8,29.79,West,278,23.0,23.0,70,0.01,-RA,,0.13,220.0,WeatherDisplay:10.37,2013-01-11 13:59:00,
2013-01-11 15:04:00,56.8,46.7,29.79,West,263,16.0,23.0,69,0.00,BKN,,0.13,257.0,WeatherDisplay:10.37,2013-01-11 14:04:00,
2013-01-11 15:09:00,56.5,45.7,29.79,WSW,252,26.0,26.0,67,0.01,BKN,,0.13,74.0,WeatherDisplay:10.37,2013-01-11 14:09:00,
2013-01-11 15:14:00,56.2,45.0,29.79,WSW,237,18.0,29.0,66,0.00,BKN,,0.13,67.0,WeatherDisplay:10.37,2013-01-11 14:14:00,
2013-01-11 15:19:00,56.2,45.4,29.80,WSW,254,16.0,29.0,67,0.00,BKN,,0.13,190.0,WeatherDisplay:10.37,2013-01-11 14:19:00,
2013-01-11 15:24:00,56.3,45.1,29.79,WSW,254,21.0,21.0,66,0.01,BKN,,0.13,135.0,WeatherDisplay:10.37,2013-01-11 14:24:00,
2013-01-11 15:29:00,56.2,45.0,29.79,West,263,23.0,23.0,66,0.01,BKN,,0.13,46.0,WeatherDisplay:10.37,2013-01-11 14:29:00,
2013-01-11 15:34:00,56.0,44.8,29.79,WSW,244,26.5,26.5,66,0.01,BKN,,0.13,63.0,WeatherDisplay:10.37,2013-01-11 14:34:00,
2013-01-11 15:39:00,55.9,45.1,29.79,West,267,17.0,26.0,67,0.00,BKN,,0.13,32.0,WeatherDisplay:10.37,2013-01-11 14:39:00,
2013-01-11 15:44:00,55.8,44.6,29.79,West,281,23.0,23.0,66,0.00,BKN,,0.13,33.0,WeatherDisplay:10.37,2013-01-11 14:44:00,
2013-01-11 15:50:00,55.7,44.9,29.79,West,276,27.6,27.6,67,0.00,BKN,,0.13,67.0,WeatherDisplay:10.37,2013-01-11 14:50:00,
2013-01-11 15:55:00,55.8,44.6,29.79,West,274,24.0,24.0,66,0.00,BKN,,0.13,33.0,WeatherDisplay:10.37,2013-01-11 14:55:00,
2013-01-11 16:00:00,55.7,43.7,29.79,West,263,20.7,20.7,64,0.00,BKN,,0.13,25.0,WeatherDisplay:10.37,2013-01-11 15:00:00,
2013-01-11 16:05:00,55.7,42.5,29.79,West,265,26.5,26.5,61,0.00,BKN,,0.13,28.0,WeatherDisplay:10.37,2013-01-11 15:05:00,
2013-01-11 16:10:00,55.7,43.3,29.79,WSW,253,21.9,21.9,63,0.00,BKN,,0.13,39.0,WeatherDisplay:10.37,2013-01-11 15:10:00,
2013-01-11 16:15:00,55.7,42.9,29.79,WSW,247,28.8,28.8,62,0.00,BKN,,0.13,25.0,WeatherDisplay:10.37,2013-01-11 15:15:00,
2013-01-11 16:20:00,55.5,41.8,29.79,WSW,242,26.5,26.5,60,0.00,BKN,,0.13,11.0,WeatherDisplay:10.37,2013-01-11 15:20:00,
2013-01-11 16:25:00,55.3,41.2,29.79,WNW,291,26.5,26.5,59,0.00,BKN,,0.13,11.0,WeatherDisplay:10.37,2013-01-11 15:25:00,
2013-01-11 16:30:00,55.3,41.2,29.79,NW,321,29.0,29.0,59,0.00,BKN,,0.13,7.0,WeatherDisplay:10.37,2013-01-11 15:30:00,
2013-01-11 16:35:00,55.4,42.6,29.79,WSW,254,25.3,25.3,62,0.00,BKN,,0.13,9.0,WeatherDisplay:10.37,2013-01-11 15:35:00,
2013-01-11 16:40:00,55.2,42.0,29.80,West,269,29.9,29.9,61,0.00,BKN,,0.13,16.0,WeatherDisplay:10.37,2013-01-11 15:40:00,
2013-01-11 16:45:00,55.1,41.5,29.79,WSW,248,24.2,24.2,60,0.00,BKN,,0.13,7.0,WeatherDisplay:10.37,2013-01-11 15:45:00,
2013-01-11 16:50:00,55.0,41.8,29.79,West,263,20.0,20.0,61,0.00,BKN,,0.13,0.0,WeatherDisplay:10.37,2013-01-11 15:50:00,
2013-01-11 16:55:00,55.2,41.1,29.79,West,261,32.2,32.2,59,0.00,BKN,,0.13,0.0,WeatherDisplay:10.37,2013-01-11 15:55:00,
2013-01-11 17:00:00,55.2,40.2,29.79,SW,226,23.0,23.0,57,0.00,BKN,,0.13,0.0,WeatherDisplay:10.37,2013-01-11 16:00:00,
2013-01-11 17:05:00,55.2,40.7,29.79,West,269,24.2,24.2,58,0.00,BKN,,0.13,0.0,WeatherDisplay:10.37,2013-01-11 16:05:00,
2013-01-11 17:10:00,55.2,41.1,29.79,SW,236,20.0,20.0,59,0.00,BKN,,0.13,0.0,WeatherDisplay:10.37,2013-01-11 16:10:00,
2013-01-11 17:15:00,55.2,42.0,29.79,WSW,254,26.5,26.5,61,0.00,BKN,,0.13,0.0,WeatherDisplay:10.37,2013-01-11 16:15:00,
2013-01-11 17:20:00,55.2,42.4,29.79,West,260,24.2,24.2,62,0.00,BKN,,0.13,0.0,WeatherDisplay:10.37,2013-01-11 16:20:00,
2013-01-11 17:25:00,54.3,41.1,29.80,WNW,282,33.4,33.4,61,0.00,BKN,,0.13,0.0,WeatherDisplay:10.37,2013-01-11 16:25:00,
2013-01-11 17:30:00,53.2,40.9,29.79,West,275,26.5,26.5,63,0.00,BKN,,0.13,0.0,WeatherDisplay:10.37,2013-01-11 16:30:00,
2013-01-11 17:35:00,52.8,38.9,29.80,West,281,31.1,31.1,59,0.00,BKN,,0.13,0.0,WeatherDisplay:10.37,2013-01-11 16:35:00,
2013-01-11 17:40:00,51.6,41.8,29.80,SW,221,41.4,41.4,69,0.01,RA,,0.14,0.0,WeatherDisplay:10.37,2013-01-11 16:40:00,
2013-01-11 17:45:00,51.2,42.1,29.80,WSW,250,21.9,21.9,71,0.01,RA,,0.14,0.0,WeatherDisplay:10.37,2013-01-11 16:45:00,
2013-01-11 17:50:00,51.4,41.9,29.79,West,274,19.6,19.6,70,0.01,BKN,,0.14,0.0,WeatherDisplay:10.37,2013-01-11 16:50:00,
2013-01-11 17:55:00,51.8,41.2,29.78,NW,307,18.4,18.4,67,0.02,RA,,0.15,0.0,WeatherDisplay:10.37,2013-01-11 16:55:00,
2013-01-11 18:00:00,51.5,41.3,29.78,SW,230,21.9,21.9,68,0.02,RA,,0.15,0.0,WeatherDisplay:10.37,2013-01-11 17:00:00,
2013-01-11 18:05:00,51.6,41.4,29.78,South,169,19.6,19.6,68,0.02,BKN,,0.15,0.0,WeatherDisplay:10.37,2013-01-11 17:05:00,
2013-01-11 18:10:00,51.8,41.9,29.78,SW,229,11.5,11.5,69,0.02,BKN,,0.15,0.0,WeatherDisplay:10.37,2013-01-11 17:10:00,
2013-01-11 18:15:00,52.2,42.3,29.78,WSW,244,16.1,16.1,69,0.02,BKN,,0.15,0.0,WeatherDisplay:10.37,2013-01-11 17:15:00,
2013-01-11 18:20:00,52.7,42.8,29.78,SW,227,21.0,21.0,69,0.02,BKN,,0.15,0.0,WeatherDisplay:10.37,2013-01-11 17:20:00,
2013-01-11 18:25:00,52.8,42.9,29.78,NW,315,20.7,20.7,69,0.02,BKN,,0.15,0.0,WeatherDisplay:10.37,2013-01-11 17:25:00,
2013-01-11 18:30:00,51.1,42.0,29.78,WNW,303,19.6,19.6,71,0.02,BKN,,0.15,0.0,WeatherDisplay:10.37,2013-01-11 17:30:00,
2013-01-11 18:35:00,49.9,42.3,29.78,West,281,18.4,18.4,75,0.02,BKN,,0.15,0.0,WeatherDisplay:10.37,2013-01-11 17:35:00,
2013-01-11 18:40:00,49.9,43.0,29.80,NW,317,20.7,20.7,77,0.01,BKN,,0.15,0.0,WeatherDisplay:10.37,2013-01-11 17:40:00,
2013-01-11 18:45:00,49.2,43.3,29.79,WSW,244,33.4,33.4,80,0.06,RA,,0.20,0.0,WeatherDisplay:10.37,2013-01-11 17:45:00,
2013-01-11 18:50:00,49.0,43.1,29.79,West,272,33.4,33.4,80,0.06,RA,,0.20,0.0,WeatherDisplay:10.37,2013-01-11 17:50:00,
2013-01-11 18:55:00,49.3,43.7,29.78,West,279,21.9,21.9,81,0.06,RA,,0.21,0.0,WeatherDisplay:10.37,2013-01-11 17:55:00,
2013-01-11 19:00:00,49.8,42.5,29.78,West,266,24.2,24.2,76,0.06,RA,,0.21,0.0,WeatherDisplay:10.37,2013-01-11 18:00:00,
2013-01-11 19:05:00,50.2,42.2,29.79,West,269,20.7,20.7,74,0.06,BKN,,0.21,0.0,WeatherDisplay:10.37,2013-01-11 18:05:00,
2013-01-11 19:10:00,50.1,43.2,29.79,West,271,19.6,19.6,77,0.06,BKN,,0.21,0.0,WeatherDisplay:10.37,2013-01-11 18:10:00,
2013-01-11 19:15:00,49.8,42.9,29.78,West,270,19.0,19.0,77,0.07,RA,,0.22,0.0,WeatherDisplay:10.37,2013-01-11 18:15:00,
2013-01-11 19:20:00,50.1,43.5,29.78,WSW,251,21.9,21.9,78,0.07,RA,,0.22,0.0,WeatherDisplay:10.37,2013-01-11 18:20:00,
2013-01-11 19:25:00,50.5,43.9,29.78,West,268,17.3,17.3,78,0.07,BKN,,0.22,0.0,WeatherDisplay:10.37,2013-01-11 18:25:00,
2013-01-11 19:30:00,50.6,44.7,29.77,WSW,244,11.5,11.5,80,0.07,BKN,,0.22,0.0,WeatherDisplay:10.37,2013-01-11 18:30:00,
2013-01-11 19:35:00,50.8,44.9,29.77,WSW,238,15.0,15.0,80,0.07,BKN,,0.22,0.0,WeatherDisplay:10.37,2013-01-11 18:35:00,
2013-01-11 19:40:00,50.8,44.9,29.77,WSW,249,16.1,16.1,80,0.08,RA,,0.23,0.0,WeatherDisplay:10.37,2013-01-11 18:40:00,
2013-01-11 19:45:00,50.8,44.9,29.77,SW,225,13.8,13.8,80,0.03,RA,,0.23,0.0,WeatherDisplay:10.37,2013-01-11 18:45:00,
2013-01-11 19:50:00,50.9,44.6,29.77,WSW,253,11.5,11.5,79,0.02,SCT,,0.23,0.0,WeatherDisplay:10.37,2013-01-11 18:50:00,
2013-01-11 19:55:00,51.0,44.4,29.77,SW,224,10.4,10.4,78,0.02,SCT,,0.23,0.0,WeatherDisplay:10.37,2013-01-11 18:55:00,
2013-01-11 20:00:00,51.1,44.8,29.77,WSW,250,4.0,4.0,79,0.02,SCT,,0.23,0.0,WeatherDisplay:10.37,2013-01-11 19:00:00,
2013-01-11 20:05:00,50.9,44.3,29.77,WNW,286,2.3,0.0,78,0.02,-DZ,,0.23,0.0,WeatherDisplay:10.37,2013-01-11 19:05:00,
2013-01-11 20:10:00,50.9,44.6,29.76,WNW,286,0.0,0.0,79,0.02,-DZ,,0.23,0.0,WeatherDisplay:10.37,2013-01-11 19:10:00,
2013-01-11 20:15:00,50.8,44.5,29.77,WNW,302,1.1,1.1,79,0.01,-DZ,,0.23,0.0,WeatherDisplay:10.37,2013-01-11 19:15:00,
2013-01-11 20:20:00,50.8,44.9,29.76,ESE,123,3.0,3.0,80,0.01,-DZ,,0.23,0.0,WeatherDisplay:10.37,2013-01-11 19:20:00,
2013-01-11 20:25:00,50.8,44.9,29.76,East,98,9.2,9.2,80,0.01,-DZ,,0.23,0.0,WeatherDisplay:10.37,2013-01-11 19:25:00,
2013-01-11 20:30:00,50.8,44.9,29.76,South,190,3.5,3.5,80,0.01,-DZ,,0.23,0.0,WeatherDisplay:10.37,2013-01-11 19:30:00,
2013-01-11 20:35:00,50.7,44.8,29.78,West,279,17.0,17.0,80,0.02,-DZ,,0.25,0.0,WeatherDisplay:10.37,2013-01-11 19:35:00,
2013-01-11 20:40:00,47.8,42.3,29.77,SSW,211,8.1,8.1,81,0.12,-DZ,,0.35,0.0,WeatherDisplay:10.37,2013-01-11 19:40:00,
2013-01-11 20:45:00,46.9,42.3,29.77,WSW,253,2.3,2.3,84,0.13,-DZ,,0.35,0.0,WeatherDisplay:10.37,2013-01-11 19:45:00,
2013-01-11 20:50:00,46.6,42.6,29.77,WSW,250,2.3,2.3,86,0.14,-DZ,,0.37,0.0,WeatherDisplay:10.37,2013-01-11 19:50:00,
2013-01-11 20:55:00,46.5,42.8,29.77,SW,225,3.5,3.5,87,0.17,-DZ,,0.40,0.0,WeatherDisplay:10.37,2013-01-11 19:55:00,
2013-01-11 21:00:00,46.5,43.1,29.77,WSW,240,2.3,2.3,88,0.17,-DZ,,0.40,0.0,WeatherDisplay:10.37,2013-01-11 20:00:00,
2013-01-11 21:05:00,46.5,43.1,29.78,NW,323,3.5,3.5,88,0.17,-DZ,,0.40,0.0,WeatherDisplay:10.37,2013-01-11 20:05:00,
2013-01-11 21:10:00,46.6,43.2,29.77,SSW,195,3.5,3.5,88,0.18,-DZ,,0.41,0.0,WeatherDisplay:10.37,2013-01-11 20:10:00,
2013-01-11 21:15:00,46.7,43.6,29.77,WSW,253,3.5,3.5,89,0.18,-DZ,,0.41,0.0,WeatherDisplay:10.37,2013-01-11 20:15:00,
2013-01-11 21:20:00,46.7,43.6,29.78,NNW,331,3.5,3.5,89,0.18,-DZ,,0.41,0.0,WeatherDisplay:10.37,2013-01-11 20:20:00,
2013-01-11 21:25:00,46.6,43.5,29.78,SSW,207,4.6,4.6,89,0.18,-DZ,,0.41,0.0,WeatherDisplay:10.37,2013-01-11 20:25:00,
2013-01-11 21:30:00,46.7,43.9,29.78,West,279,3.5,3.5,90,0.18,-DZ,,0.41,0.0,WeatherDisplay:10.37,2013-01-11 20:30:00,
2013-01-11 21:35:00,46.7,43.9,29.78,NE,53,2.3,2.3,90,0.18,-DZ,,0.41,0.0,WeatherDisplay:10.37,2013-01-11 20:35:00,
2013-01-11 21:40:00,46.7,43.9,29.78,WSW,250,3.5,3.5,90,0.10,-DZ,,0.41,0.0,WeatherDisplay:10.37,2013-01-11 20:40:00,
2013-01-11 21:45:00,46.7,43.9,29.78,NNE,23,3.5,3.5,90,0.06,-DZ,,0.41,0.0,WeatherDisplay:10.37,2013-01-11 20:45:00,
2013-01-11 21:50:00,46.6,43.8,29.78,ENE,57,1.1,1.1,90,0.04,SCT,,0.41,0.0,WeatherDisplay:10.37,2013-01-11 20:50:00,
2013-01-11 21:55:00,46.6,43.8,29.78,SSE,150,2.3,2.3,90,0.01,SCT,,0.41,0.0,WeatherDisplay:10.37,2013-01-11 20:55:00,
2013-01-11 22:00:00,46.4,43.6,29.78,NNW,340,3.5,3.5,90,0.01,SCT,,0.41,0.0,WeatherDisplay:10.37,2013-01-11 21:00:00,
2013-01-11 22:05:00,46.2,43.4,29.79,SSE,164,4.6,4.6,90,0.01,SCT,,0.41,0.0,WeatherDisplay:10.37,2013-01-11 21:05:00,
2013-01-11 22:10:00,46.2,43.4,29.79,ENE,62,3.0,3.0,90,0.00,SCT,,0.41,0.0,WeatherDisplay:10.37,2013-01-11 21:10:00,
2013-01-11 22:15:00,45.9,43.1,29.79,SW,223,3.5,3.5,90,0.00,SCT,,0.41,0.0,WeatherDisplay:10.37,2013-01-11 21:15:00,
2013-01-11 22:20:00,45.8,43.0,29.79,NE,34,3.5,3.5,90,0.00,SCT,,0.41,0.0,WeatherDisplay:10.37,2013-01-11 21:20:00,
2013-01-11 22:25:00,45.8,43.3,29.80,WSW,240,3.5,3.5,91,0.00,SCT,,0.41,0.0,WeatherDisplay:10.37,2013-01-11 21:25:00,
2013-01-11 22:30:00,45.7,43.2,29.80,SSW,193,4.6,4.6,91,0.00,SCT,,0.41,0.0,WeatherDisplay:10.37,2013-01-11 21:30:00,
2013-01-11 22:35:00,45.6,43.1,29.80,SSE,163,2.3,2.3,91,0.00,SCT,,0.41,0.0,WeatherDisplay:10.37,2013-01-11 21:35:00,
2013-01-11 22:40:00,45.6,43.1,29.80,WSW,241,4.6,4.6,91,0.00,SCT,,0.41,0.0,WeatherDisplay:10.37,2013-01-11 21:40:00,
2013-01-11 22:45:00,45.7,43.2,29.80,West,270,2.3,2.3,91,0.00,SCT,,0.41,0.0,WeatherDisplay:10.37,2013-01-11 21:45:00,
2013-01-11 22:50:00,45.7,43.2,29.80,ENE,61,1.1,1.1,91,0.00,SCT,,0.41,0.0,WeatherDisplay:10.37,2013-01-11 21:50:00,
2013-01-11 22:55:00,45.6,43.1,29.80,NE,55,2.0,2.0,91,0.00,SCT,,0.41,0.0,WeatherDisplay:10.37,2013-01-11 21:55:00,
2013-01-11 23:01:00,45.8,43.3,29.80,NNW,343,2.3,2.3,91,0.00,SCT,,0.41,0.0,WeatherDisplay:10.37,2013-01-11 22:01:00,
2013-01-11 23:06:00,46.4,43.9,29.80,NNW,346,5.8,5.8,91,0.00,SCT,,0.41,0.0,WeatherDisplay:10.37,2013-01-11 22:06:00,
2013-01-11 23:11:00,47.3,44.5,29.81,NNW,339,5.8,5.8,90,0.00,SCT,,0.41,0.0,WeatherDisplay:10.37,2013-01-11 22:11:00,
2013-01-11 23:16:00,48.1,44.7,29.81,NW,313,6.9,6.9,88,0.00,SCT,,0.41,0.0,WeatherDisplay:10.37,2013-01-11 22:16:00,
2013-01-11 23:21:00,48.6,44.6,29.81,NW,321,5.8,5.8,86,0.00,SCT,,0.41,0.0,WeatherDisplay:10.37,2013-01-11 22:21:00,
2013-01-11 23:26:00,48.7,44.4,29.81,North,360,4.6,4.6,85,0.00,SCT,,0.41,0.0,WeatherDisplay:10.37,2013-01-11 22:26:00,
2013-01-11 23:31:00,48.3,43.7,29.82,East,82,3.5,3.5,84,0.00,SCT,,0.41,0.0,WeatherDisplay:10.37,2013-01-11 22:31:00,
2013-01-11 23:36:00,47.6,43.0,29.81,ENE,71,3.5,3.5,84,0.00,SCT,,0.41,0.0,WeatherDisplay:10.37,2013-01-11 22:36:00,
2013-01-11 23:41:00,47.2,42.9,29.82,ESE,110,6.9,6.9,85,0.00,SCT,,0.41,0.0,WeatherDisplay:10.37,2013-01-11 22:41:00,
2013-01-11 23:46:00,46.9,42.9,29.82,SW,233,2.3,2.3,86,0.00,SCT,,0.41,0.0,WeatherDisplay:10.37,2013-01-11 22:46:00,
2013-01-11 23:51:00,46.5,42.5,29.82,North,5,1.1,1.1,86,0.00,SCT,,0.41,0.0,WeatherDisplay:10.37,2013-01-11 22:51:00,
2013-01-11 23:56:00,46.2,42.2,29.82,SW,232,4.6,4.6,86,0.00,SCT,,0.41,0.0,WeatherDisplay:10.37,2013-01-11 22:56:00,